Time;durP1;ratioP1;P1;durP2;ratioP2;P2;SDS_P1;SDS_P2;PMS_P1;PMS_P2;Temp;Humidity;BMP_temperature;BMP_pressure;BME280_temperature;BME280_humidity;BME280_pressure;Samples;Min_cycle;Max_cycle;Signal;HPM_P1;HPM_P2
2022/08/19 00:01:54;;;;;;;1.00;0.60;;;19.80;99.90;;;;;;6166183;23;20032;-88
2022/08/19 00:04:24;;;;;;;0.73;0.43;;;19.80;99.90;;;;;;6165409;23;20095;-92
2022/08/19 00:06:51;;;;;;;0.88;0.60;;;19.80;99.90;;;;;;6166501;23;20091;-88
2022/08/19 00:09:19;;;;;;;0.65;0.45;;;19.80;99.90;;;;;;6166610;23;20028;-90
2022/08/19 00:11:46;;;;;;;0.55;0.38;;;19.80;99.90;;;;;;6164883;23;20097;-88
2022/08/19 00:14:15;;;;;;;0.88;0.47;;;19.80;99.90;;;;;;6165633;23;20020;-90
2022/08/19 00:16:43;;;;;;;0.88;0.60;;;19.90;99.90;;;;;;6167048;23;20023;-91
2022/08/19 00:19:10;;;;;;;0.40;0.40;;;19.80;99.90;;;;;;6167035;23;20024;-89
2022/08/19 00:21:39;;;;;;;0.50;0.40;;;19.90;99.90;;;;;;6167775;23;20020;-92
2022/08/19 00:24:07;;;;;;;0.47;0.30;;;19.90;99.90;;;;;;6167586;23;20047;-91
2022/08/19 00:26:35;;;;;;;0.82;0.43;;;19.90;99.90;;;;;;6173387;23;20020;-89
2022/08/19 00:29:06;;;;;;;0.40;0.32;;;19.80;99.90;;;;;;6176057;23;20019;-93
2022/08/19 00:31:33;;;;;;;0.30;0.30;;;19.80;99.90;;;;;;6171124;23;20046;-91
2022/08/19 00:34:00;;;;;;;0.43;0.43;;;19.90;99.90;;;;;;6169977;23;20380;-90
2022/08/19 00:36:32;;;;;;;0.68;0.40;;;19.90;99.90;;;;;;6170202;23;20439;-93
2022/08/19 00:38:59;;;;;;;0.60;0.50;;;19.90;99.90;;;;;;6171600;23;20368;-93
2022/08/19 00:41:27;;;;;;;0.45;0.35;;;19.90;99.90;;;;;;6171151;23;20016;-89
2022/08/19 00:44:04;;;;;;;0.82;0.50;;;19.90;99.90;;;;;;6171266;23;20035;-91
2022/08/19 00:46:32;;;;;;;0.40;0.40;;;19.90;99.90;;;;;;6197324;23;20086;-89
2022/08/19 00:49:00;;;;;;;0.50;0.50;;;19.90;99.90;;;;;;6170439;23;20020;-90
2022/08/19 00:51:27;;;;;;;1.55;0.50;;;19.90;99.90;;;;;;6172312;23;20086;-89
2022/08/19 00:53:55;;;;;;;0.30;0.30;;;19.90;99.90;;;;;;6173111;23;20016;-90
2022/08/19 00:56:23;;;;;;;0.38;0.32;;;20.00;99.90;;;;;;6196269;23;20016;-90
2022/08/19 00:58:50;;;;;;;0.63;0.40;;;20.00;99.90;;;;;;6174940;23;20027;-93
2022/08/19 01:01:17;;;;;;;0.30;0.30;;;20.00;99.90;;;;;;6173690;23;20020;-90
2022/08/19 01:03:44;;;;;;;0.52;0.50;;;20.00;99.90;;;;;;6172085;23;20020;-91
2022/08/19 01:06:24;;;;;;;0.20;0.20;;;20.00;99.90;;;;;;6177071;23;20024;-88
2022/08/19 01:08:52;;;;;;;0.30;0.30;;;20.00;99.90;;;;;;6166403;23;20016;-89
2022/08/19 01:11:19;;;;;;;0.20;0.20;;;19.90;99.90;;;;;;6164873;23;20024;-89
2022/08/19 01:13:46;;;;;;;0.28;0.28;;;19.90;99.90;;;;;;6165395;23;20028;-89
2022/08/19 01:16:16;;;;;;;0.88;0.43;;;19.90;99.90;;;;;;6166702;23;20036;-90
2022/08/19 01:18:44;;;;;;;0.40;0.40;;;19.90;99.90;;;;;;6164390;23;20839;-88
2022/08/19 01:21:21;;;;;;;0.30;0.30;;;19.90;99.90;;;;;;6164007;23;20016;-89
2022/08/19 01:23:49;;;;;;;0.28;0.28;;;19.90;99.90;;;;;;6166406;23;20493;-89
2022/08/19 01:26:18;;;;;;;0.40;0.30;;;19.90;99.90;;;;;;6164776;23;20050;-89
2022/08/19 01:28:46;;;;;;;0.55;0.40;;;19.90;99.90;;;;;;6164881;23;20064;-89
2022/08/19 01:44:36;;;;;;;0.85;0.40;;;20.00;99.90;;;;;;6224387;22;20103;-90
2022/08/19 01:47:03;;;;;;;0.47;0.35;;;20.10;99.90;;;;;;6197389;23;20078;-91
2022/08/19 01:49:30;;;;;;;0.20;0.20;;;20.10;99.90;;;;;;6172232;23;20020;-89
2022/08/19 01:51:58;;;;;;;0.30;0.30;;;20.10;99.90;;;;;;6169891;23;20016;-92
2022/08/19 01:54:25;;;;;;;0.93;0.50;;;20.10;99.90;;;;;;6169855;23;20020;-93
2022/08/19 01:56:57;;;;;;;0.60;0.50;;;20.10;99.90;;;;;;6169465;23;20023;-91
2022/08/19 01:59:24;;;;;;;0.40;0.40;;;20.10;99.90;;;;;;6169326;23;20031;-90
2022/08/19 02:01:51;;;;;;;0.75;0.50;;;20.10;99.90;;;;;;6165123;23;20016;-89
2022/08/19 02:04:18;;;;;;;0.75;0.57;;;20.00;99.90;;;;;;6165741;23;20019;-88
2022/08/19 02:06:45;;;;;;;0.55;0.55;;;20.10;99.90;;;;;;6164878;23;20066;-89
2022/08/19 02:09:12;;;;;;;0.60;0.40;;;20.00;99.90;;;;;;6165924;23;20024;-94
2022/08/19 02:11:39;;;;;;;0.95;0.60;;;20.10;99.90;;;;;;6166150;23;20453;-88
2022/08/19 02:14:07;;;;;;;0.60;0.52;;;20.10;99.90;;;;;;6165155;23;20028;-89
2022/08/19 02:16:34;;;;;;;0.60;0.50;;;20.10;99.90;;;;;;6165898;23;20069;-88
2022/08/19 02:19:01;;;;;;;0.73;0.65;;;20.10;99.90;;;;;;6166094;23;20047;-88
2022/08/19 02:21:28;;;;;;;0.45;0.45;;;20.10;99.90;;;;;;6166014;23;20083;-90
2022/08/19 02:23:56;;;;;;;0.50;0.35;;;20.20;99.90;;;;;;6167172;23;20024;-88
2022/08/19 02:26:23;;;;;;;0.77;0.70;;;20.10;99.90;;;;;;6164460;23;20016;-90
2022/08/19 02:28:50;;;;;;;0.45;0.43;;;20.10;99.90;;;;;;6166973;23;20020;-93
2022/08/19 02:31:18;;;;;;;0.50;0.50;;;20.10;99.90;;;;;;6167255;23;20023;-90
2022/08/19 02:33:45;;;;;;;0.40;0.40;;;20.20;99.90;;;;;;6167386;23;20020;-90
2022/08/19 02:36:13;;;;;;;0.52;0.50;;;20.20;99.90;;;;;;6171640;23;20024;-92
2022/08/19 02:38:41;;;;;;;0.60;0.40;;;20.20;99.90;;;;;;6176761;23;20020;-95
2022/08/19 02:41:15;;;;;;;0.47;0.40;;;20.20;99.90;;;;;;6179371;23;20031;-90
2022/08/19 02:43:42;;;;;;;0.50;0.50;;;20.30;99.90;;;;;;6176183;23;20031;-92
2022/08/19 02:46:30;;;;;;;0.80;0.43;;;20.30;99.90;;;;;;6181652;23;20016;-90
2022/08/19 02:48:59;;;;;;;0.70;0.70;;;20.30;99.90;;;;;;6172174;23;20020;-90
2022/08/19 02:51:31;;;;;;;0.40;0.40;;;20.30;99.90;;;;;;6172007;23;20090;-91
2022/08/19 02:53:59;;;;;;;0.30;0.30;;;20.30;99.90;;;;;;6173467;23;20079;-92
2022/08/19 02:56:27;;;;;;;1.42;0.65;;;20.30;99.90;;;;;;6173117;23;20016;-93
2022/08/19 02:58:54;;;;;;;0.65;0.60;;;20.30;99.90;;;;;;6176254;23;20024;-90
2022/08/19 03:01:32;;;;;;;0.40;0.40;;;20.40;99.90;;;;;;6175889;23;20118;-94
2022/08/19 03:04:01;;;;;;;0.63;0.52;;;20.40;99.90;;;;;;6178242;23;20020;-94
2022/08/19 03:06:28;;;;;;;0.45;0.45;;;20.40;99.90;;;;;;6176922;23;20024;-91
2022/08/19 03:08:55;;;;;;;0.30;0.30;;;20.40;99.90;;;;;;6202920;23;20024;-94
2022/08/19 03:11:30;;;;;;;1.17;0.63;;;20.40;99.90;;;;;;6176841;23;20028;-92
2022/08/19 03:13:58;;;;;;;0.47;0.47;;;20.40;99.90;;;;;;6178222;23;20058;-91
2022/08/19 03:16:30;;;;;;;0.45;0.45;;;20.30;99.90;;;;;;6174627;23;20016;-92
2022/08/19 03:18:59;;;;;;;0.85;0.70;;;20.30;99.90;;;;;;6169347;23;20035;-89
2022/08/19 03:21:28;;;;;;;0.47;0.47;;;20.30;99.90;;;;;;6164804;23;20023;-90
2022/08/19 03:23:56;;;;;;;0.63;0.50;;;20.30;99.90;;;;;;6165843;23;20472;-88
2022/08/19 03:26:23;;;;;;;0.30;0.30;;;20.30;99.90;;;;;;6165970;23;20059;-89
2022/08/19 03:28:50;;;;;;;0.40;0.40;;;20.30;99.90;;;;;;6165224;23;20108;-87
2022/08/19 03:31:25;;;;;;;0.73;0.40;;;20.30;99.90;;;;;;6170060;23;20016;-88
2022/08/19 03:34:15;;;;;;;0.73;0.70;;;20.30;99.90;;;;;;6178283;23;20020;-86
2022/08/19 03:36:42;;;;;;;0.55;0.55;;;20.30;99.90;;;;;;6166170;23;20050;-88
2022/08/19 03:39:09;;;;;;;0.70;0.40;;;20.30;99.90;;;;;;6165026;23;20024;-88
2022/08/19 03:41:37;;;;;;;0.52;0.50;;;20.30;99.90;;;;;;6164071;23;20012;-88
2022/08/19 03:44:15;;;;;;;0.68;0.60;;;20.30;99.90;;;;;;6168576;23;20656;-88
2022/08/19 03:46:45;;;;;;;0.65;0.65;;;20.30;99.90;;;;;;6167795;23;20024;-89
2022/08/19 03:49:11;;;;;;;0.70;0.65;;;20.10;99.90;;;;;;6166131;23;20020;-88
2022/08/19 03:51:40;;;;;;;0.80;0.60;;;20.00;99.90;;;;;;6166740;23;20074;-89
2022/08/19 03:54:09;;;;;;;1.02;0.60;;;19.80;99.90;;;;;;6165537;23;20016;-87
2022/08/19 03:56:37;;;;;;;1.17;0.90;;;19.80;99.90;;;;;;6165879;23;20012;-87
2022/08/19 03:59:06;;;;;;;0.77;0.68;;;19.60;99.90;;;;;;6166808;23;20020;-89
2022/08/19 04:01:33;;;;;;;0.65;0.65;;;19.60;99.90;;;;;;6166138;23;20023;-89
2022/08/19 04:04:01;;;;;;;0.55;0.52;;;19.60;99.90;;;;;;6168367;23;20463;-89
2022/08/19 04:06:31;;;;;;;0.70;0.70;;;19.60;99.90;;;;;;6169197;23;20023;-88
2022/08/19 04:08:59;;;;;;;0.57;0.57;;;19.60;99.90;;;;;;6168459;23;20090;-87
2022/08/19 04:11:29;;;;;;;0.70;0.65;;;19.60;99.90;;;;;;6167953;23;20078;-88
2022/08/19 04:14:14;;;;;;;0.65;0.60;;;19.60;99.90;;;;;;6175315;23;20473;-89
2022/08/19 04:16:44;;;;;;;0.50;0.50;;;19.70;99.90;;;;;;6163889;23;20085;-89
2022/08/19 04:19:11;;;;;;;0.60;0.60;;;19.70;99.90;;;;;;6167848;23;20024;-90
2022/08/19 04:21:38;;;;;;;0.60;0.60;;;19.70;99.90;;;;;;6167360;23;20066;-88
2022/08/19 04:24:05;;;;;;;0.73;0.57;;;19.70;99.90;;;;;;6167171;23;20455;-88
2022/08/19 04:26:35;;;;;;;0.50;0.47;;;19.80;99.90;;;;;;6168430;23;20016;-90
2022/08/19 04:29:04;;;;;;;0.80;0.70;;;19.80;99.90;;;;;;6167254;23;20028;-89
2022/08/19 04:31:37;;;;;;;0.52;0.52;;;19.80;99.90;;;;;;6171531;23;20350;-89
2022/08/19 04:34:06;;;;;;;0.57;0.57;;;19.80;99.90;;;;;;6166986;23;20086;-89
2022/08/19 04:36:34;;;;;;;0.82;0.52;;;19.80;99.90;;;;;;6166153;23;20023;-90
2022/08/19 04:39:04;;;;;;;0.40;0.40;;;19.80;99.90;;;;;;6167056;23;20043;-89
2022/08/19 04:44:17;;;;;;;0.65;0.60;;;19.80;99.90;;;;;;6198525;23;20020;-90
2022/08/19 04:46:48;;;;;;;0.50;0.50;;;19.80;99.90;;;;;;6168655;23;20012;-94
2022/08/19 04:49:21;;;;;;;1.63;0.70;;;19.90;99.90;;;;;;6169819;23;20024;-90
2022/08/19 04:51:49;;;;;;;0.80;0.70;;;19.90;99.90;;;;;;6168535;23;20022;-90
2022/08/19 04:54:17;;;;;;;0.50;0.50;;;19.80;99.90;;;;;;6167780;23;20023;-88
2022/08/19 04:57:06;;;;;;;0.50;0.50;;;19.80;99.90;;;;;;6184959;23;20020;-90
2022/08/19 04:59:34;;;;;;;0.75;0.63;;;19.80;99.90;;;;;;6170226;23;20020;-90
2022/08/19 05:02:01;;;;;;;0.50;0.50;;;19.90;99.90;;;;;;6178978;23;20020;-88
2022/08/19 05:04:31;;;;;;;1.05;0.82;;;19.90;99.90;;;;;;6175352;23;20020;-91
2022/08/19 05:06:59;;;;;;;0.50;0.40;;;19.90;99.90;;;;;;6170531;23;20016;-92
2022/08/19 05:09:27;;;;;;;0.60;0.60;;;19.80;99.90;;;;;;6169555;23;20024;-90
2022/08/19 05:12:15;;;;;;;1.40;0.60;;;19.80;99.90;;;;;;6183022;23;20050;-90
2022/08/19 05:14:45;;;;;;;0.50;0.50;;;19.80;99.90;;;;;;6169785;23;20036;-88
2022/08/19 05:17:12;;;;;;;0.90;0.70;;;19.90;99.90;;;;;;6170708;23;20020;-90
2022/08/19 05:22:46;;;;;;;0.50;0.50;;;19.80;99.90;;;;;;6201366;23;20023;-90
2022/08/19 05:25:18;;;;;;;0.57;0.50;;;19.80;99.90;;;;;;6168161;23;20047;-90
2022/08/19 05:27:45;;;;;;;0.60;0.60;;;19.70;99.90;;;;;;6170513;23;20090;-89
2022/08/19 05:30:12;;;;;;;0.70;0.60;;;19.60;99.90;;;;;;6168793;23;20047;-88
2022/08/19 05:32:39;;;;;;;0.82;0.70;;;19.60;99.90;;;;;;6169350;23;20016;-90
2022/08/19 05:35:07;;;;;;;0.40;0.40;;;19.60;99.90;;;;;;6170406;23;20070;-94
2022/08/19 05:37:34;;;;;;;0.45;0.32;;;19.60;99.90;;;;;;6171848;23;20020;-91
2022/08/19 05:40:01;;;;;;;1.00;0.60;;;19.70;99.90;;;;;;6168479;23;20024;-90
2022/08/19 05:42:30;;;;;;;0.70;0.63;;;19.60;99.90;;;;;;6171084;23;20016;-93
2022/08/19 05:44:57;;;;;;;0.98;0.63;;;19.60;99.90;;;;;;6169771;23;20026;-88
2022/08/19 05:47:24;;;;;;;0.40;0.40;;;19.50;99.90;;;;;;6170025;23;20016;-90
2022/08/19 05:49:54;;;;;;;0.57;0.40;;;19.50;99.90;;;;;;6167553;23;20095;-89
2022/08/19 05:52:21;;;;;;;0.30;0.30;;;19.50;99.90;;;;;;6168382;23;20024;-90
2022/08/19 05:54:54;;;;;;;0.50;0.40;;;19.60;99.90;;;;;;6170792;23;20044;-89
2022/08/19 05:57:23;;;;;;;0.40;0.40;;;19.60;99.90;;;;;;6169041;23;20012;-88
2022/08/19 05:59:51;;;;;;;0.30;0.30;;;19.70;99.90;;;;;;6168185;23;20020;-87
2022/08/19 06:02:27;;;;;;;0.30;0.30;;;19.80;99.90;;;;;;6172282;23;20016;-89
2022/08/19 06:04:54;;;;;;;0.30;0.30;;;20.00;99.90;;;;;;6168929;23;20020;-88
2022/08/19 06:07:22;;;;;;;0.25;0.25;;;20.00;99.90;;;;;;6171798;23;20020;-89
2022/08/19 06:09:49;;;;;;;0.32;0.28;;;20.10;99.90;;;;;;6169953;23;20513;-89
2022/08/19 06:12:28;;;;;;;0.20;0.20;;;20.10;99.90;;;;;;6174646;23;20018;-91
2022/08/19 06:14:55;;;;;;;0.30;0.22;;;20.20;99.90;;;;;;6168782;23;20024;-90
2022/08/19 06:17:28;;;;;;;0.20;0.20;;;20.30;99.90;;;;;;6171403;23;20020;-90
2022/08/19 06:19:56;;;;;;;0.30;0.10;;;20.30;99.90;;;;;;6168704;23;20019;-89
2022/08/19 06:22:23;;;;;;;0.55;0.22;;;20.30;99.90;;;;;;6167781;23;20088;-89
2022/08/19 06:24:52;;;;;;;0.17;0.17;;;20.40;99.90;;;;;;6167465;23;20127;-90
2022/08/19 06:27:20;;;;;;;0.28;0.20;;;20.50;99.90;;;;;;6166834;23;20020;-91
2022/08/19 06:29:47;;;;;;;0.25;0.20;;;20.50;99.90;;;;;;6167721;23;20020;-91
2022/08/19 06:32:16;;;;;;;0.30;0.28;;;20.40;99.90;;;;;;6166976;23;20026;-91
2022/08/19 06:34:42;;;;;;;0.10;0.10;;;20.50;99.90;;;;;;6168301;23;20020;-89
2022/08/19 06:37:11;;;;;;;0.10;0.10;;;20.50;99.90;;;;;;6169046;23;20016;-91
2022/08/19 06:39:39;;;;;;;0.55;0.30;;;20.60;99.90;;;;;;6170017;23;20517;-89
2022/08/19 06:42:09;;;;;;;0.10;0.10;;;20.60;99.90;;;;;;6169355;23;20016;-91
2022/08/19 06:44:40;;;;;;;0.13;0.13;;;20.60;99.90;;;;;;6169570;23;20031;-91
2022/08/19 06:47:12;;;;;;;0.45;0.20;;;20.60;99.90;;;;;;6171192;23;20070;-91
2022/08/19 06:49:40;;;;;;;0.38;0.25;;;20.60;99.90;;;;;;6172018;23;20016;-91
2022/08/19 06:52:08;;;;;;;0.20;0.20;;;20.60;99.90;;;;;;6170720;23;20016;-91
2022/08/19 06:54:40;;;;;;;0.10;0.10;;;20.50;99.90;;;;;;6173021;23;20598;-91
2022/08/19 06:57:23;;;;;;;0.20;0.20;;;20.50;99.90;;;;;;6178543;23;20074;-92
2022/08/19 06:59:50;;;;;;;0.60;0.30;;;20.50;99.90;;;;;;6170846;23;20070;-91
2022/08/19 07:02:17;;;;;;;0.35;0.10;;;20.50;99.90;;;;;;6169382;23;20022;-92
2022/08/19 07:04:44;;;;;;;0.30;0.20;;;20.50;99.90;;;;;;6168252;23;20042;-92
2022/08/19 07:07:13;;;;;;;0.70;0.20;;;20.50;99.90;;;;;;6170008;23;20027;-92
2022/08/19 07:09:47;;;;;;;0.22;0.22;;;20.50;99.90;;;;;;6175908;23;20031;-92
2022/08/19 07:12:33;;;;;;;0.20;0.20;;;20.50;99.90;;;;;;6178184;23;20023;-92
2022/08/19 07:15:05;;;;;;;0.45;0.30;;;20.50;99.90;;;;;;6176551;23;20035;-92
2022/08/19 07:17:35;;;;;;;0.45;0.30;;;20.50;99.90;;;;;;6176508;23;20020;-92
2022/08/19 07:20:07;;;;;;;0.10;0.10;;;20.60;99.90;;;;;;6174766;23;20088;-91
2022/08/19 07:22:37;;;;;;;0.40;0.32;;;20.60;99.90;;;;;;6185520;23;20091;-91
2022/08/19 07:25:05;;;;;;;0.65;0.32;;;20.60;99.90;;;;;;6178853;23;20106;-91
2022/08/19 07:27:33;;;;;;;1.35;0.40;;;20.60;99.90;;;;;;6171580;23;20047;-91
2022/08/19 07:30:04;;;;;;;0.32;0.30;;;20.60;99.90;;;;;;6171674;23;20079;-91
2022/08/19 07:32:38;;;;;;;0.30;0.30;;;20.60;99.90;;;;;;6175683;23;20040;-91
2022/08/19 07:35:06;;;;;;;0.20;0.20;;;20.60;99.90;;;;;;6171095;23;20020;-91
2022/08/19 07:37:35;;;;;;;0.75;0.28;;;20.60;99.90;;;;;;6173471;23;20035;-93
2022/08/19 07:40:03;;;;;;;0.75;0.45;;;20.60;99.90;;;;;;6180311;23;20016;-92
2022/08/19 07:42:31;;;;;;;0.30;0.30;;;20.70;99.90;;;;;;6175908;23;20039;-94
2022/08/19 07:44:58;;;;;;;1.10;0.40;;;20.70;99.90;;;;;;6174867;23;20529;-93
2022/08/19 07:47:27;;;;;;;0.55;0.28;;;20.80;99.90;;;;;;6175004;23;20036;-93
2022/08/19 07:50:14;;;;;;;0.25;0.20;;;21.00;99.90;;;;;;6188047;23;20024;-92
2022/08/19 07:52:44;;;;;;;0.35;0.30;;;21.10;99.90;;;;;;6174337;23;20019;-93
2022/08/19 07:55:15;;;;;;;0.30;0.30;;;21.30;99.90;;;;;;6178325;23;20047;-93
2022/08/19 07:58:04;;;;;;;0.17;0.10;;;21.40;99.90;;;;;;6188108;23;20074;-93
2022/08/19 08:00:31;;;;;;;0.30;0.30;;;21.40;99.90;;;;;;6177361;23;20020;-93
2022/08/19 08:02:58;;;;;;;0.20;0.20;;;21.50;99.90;;;;;;6177503;23;20012;-94
2022/08/19 08:10:58;;;;;;;0.40;0.30;;;21.60;99.90;;;;;;6208313;23;20031;-92
2022/08/19 08:13:26;;;;;;;0.40;0.20;;;21.60;99.90;;;;;;6178754;23;20028;-89
2022/08/19 08:15:55;;;;;;;0.35;0.20;;;21.70;99.90;;;;;;6177483;23;20031;-92
2022/08/19 08:18:23;;;;;;;0.30;0.25;;;21.80;99.90;;;;;;6172715;23;20016;-91
2022/08/19 08:20:56;;;;;;;0.73;0.30;;;21.80;99.90;;;;;;6170751;23;20020;-91
2022/08/19 08:23:24;;;;;;;0.85;0.40;;;21.80;99.90;;;;;;6170798;23;20016;-90
2022/08/19 08:25:54;;;;;;;0.20;0.20;;;21.90;99.90;;;;;;6170439;23;20016;-91
2022/08/19 08:28:22;;;;;;;0.35;0.30;;;22.00;99.90;;;;;;6172715;23;20024;-91
2022/08/19 08:30:49;;;;;;;0.98;0.40;;;22.00;99.90;;;;;;6172948;23;20046;-92
2022/08/19 08:33:21;;;;;;;0.30;0.30;;;22.00;99.90;;;;;;6173504;23;20020;-91
2022/08/19 08:36:02;;;;;;;1.02;0.55;;;22.00;99.90;;;;;;6182076;23;20016;-91
2022/08/19 08:38:32;;;;;;;0.70;0.30;;;22.10;99.90;;;;;;6175481;23;20466;-91
2022/08/19 08:41:29;;;;;;;0.40;0.20;;;22.10;99.90;;;;;;6178023;23;20023;-92
2022/08/19 08:43:57;;;;;;;0.40;0.20;;;22.20;99.90;;;;;;6202219;23;20095;-90
2022/08/19 08:46:34;;;;;;;0.25;0.20;;;22.30;99.90;;;;;;6174652;23;20024;-92
2022/08/19 08:49:17;;;;;;;0.35;0.28;;;22.40;99.90;;;;;;6196798;23;20074;-92
2022/08/19 08:51:57;;;;;;;1.15;0.20;;;22.40;99.90;;;;;;6197808;23;20020;-92
2022/08/19 08:54:34;;;;;;;1.67;0.40;;;22.40;99.90;;;;;;6173983;23;20016;-92
2022/08/19 08:57:11;;;;;;;0.30;0.30;;;22.10;99.90;;;;;;6172579;23;20020;-92
2022/08/19 08:59:40;;;;;;;0.50;0.30;;;22.20;99.90;;;;;;6172237;23;20377;-91
2022/08/19 09:02:07;;;;;;;0.47;0.30;;;22.00;99.90;;;;;;6170606;23;20351;-91
2022/08/19 09:04:35;;;;;;;0.52;0.43;;;21.90;99.90;;;;;;6171211;23;20035;-91
2022/08/19 09:07:21;;;;;;;0.40;0.40;;;21.80;99.90;;;;;;6171842;23;20012;-90
2022/08/19 09:10:16;;;;;;;0.25;0.25;;;21.70;99.90;;;;;;6223646;23;20090;-92
2022/08/19 09:13:06;;;;;;;0.55;0.30;;;21.50;99.90;;;;;;6174071;23;20056;-91
2022/08/19 09:15:39;;;;;;;1.75;0.40;;;21.40;99.90;;;;;;6197897;23;20020;-91
2022/08/19 09:18:09;;;;;;;0.20;0.20;;;21.40;99.90;;;;;;6174096;23;20506;-90
2022/08/19 09:20:46;;;;;;;0.98;0.40;;;21.50;99.90;;;;;;6177459;23;20493;-91
2022/08/19 09:23:13;;;;;;;0.63;0.30;;;21.80;99.90;;;;;;6178979;23;20016;-92
2022/08/19 09:25:40;;;;;;;1.17;0.55;;;22.10;99.90;;;;;;6177793;23;20031;-90
2022/08/19 09:28:08;;;;;;;0.32;0.32;;;22.30;99.90;;;;;;6174474;23;20023;-90
2022/08/19 09:30:48;;;;;;;0.68;0.38;;;22.40;99.90;;;;;;6181852;23;20016;-91
2022/08/19 09:33:19;;;;;;;0.90;0.50;;;22.40;99.90;;;;;;6173321;23;20355;-91
2022/08/19 09:35:46;;;;;;;0.40;0.30;;;22.40;99.90;;;;;;6172366;23;20024;-92
2022/08/19 09:38:19;;;;;;;0.93;0.57;;;22.40;99.90;;;;;;6175009;23;20020;-92
2022/08/19 09:40:47;;;;;;;0.63;0.30;;;22.40;99.90;;;;;;6175947;23;20032;-92
2022/08/19 09:43:14;;;;;;;1.65;0.57;;;22.40;99.90;;;;;;6179814;23;20163;-92
2022/08/19 09:46:00;;;;;;;0.93;0.40;;;22.50;99.90;;;;;;6185666;23;20078;-90
2022/08/19 09:48:27;;;;;;;0.77;0.45;;;22.70;99.90;;;;;;6171915;23;20023;-92
2022/08/19 09:50:54;;;;;;;0.65;0.28;;;22.60;99.90;;;;;;6171405;23;20043;-91
2022/08/19 09:53:22;;;;;;;0.30;0.30;;;22.60;99.90;;;;;;6171873;23;20016;-91
2022/08/19 09:55:51;;;;;;;0.43;0.22;;;22.70;99.90;;;;;;6172482;23;20016;-92
2022/08/19 09:58:20;;;;;;;0.40;0.20;;;22.70;99.90;;;;;;6172478;23;20023;-92
2022/08/19 10:00:53;;;;;;;0.55;0.30;;;22.80;99.90;;;;;;6174096;23;20016;-92
2022/08/19 10:03:20;;;;;;;1.10;0.30;;;23.00;99.90;;;;;;6172289;23;20063;-90
2022/08/19 10:05:56;;;;;;;0.43;0.30;;;23.20;99.90;;;;;;6176027;23;20024;-90
2022/08/19 10:08:26;;;;;;;0.43;0.32;;;23.40;99.90;;;;;;6172766;23;20012;-91
2022/08/19 10:10:54;;;;;;;0.20;0.20;;;23.50;99.90;;;;;;6171619;23;20028;-92
2022/08/19 10:13:26;;;;;;;0.50;0.30;;;23.70;99.90;;;;;;6171526;23;20016;-92
2022/08/19 10:15:54;;;;;;;0.63;0.20;;;24.00;99.90;;;;;;6172272;23;20020;-92
2022/08/19 10:18:22;;;;;;;0.38;0.30;;;24.20;99.90;;;;;;6172348;23;20016;-92
2022/08/19 10:20:50;;;;;;;0.80;0.50;;;24.20;99.90;;;;;;6170059;23;20091;-91
2022/08/19 10:23:19;;;;;;;0.75;0.25;;;24.10;99.90;;;;;;6171020;23;20020;-91
2022/08/19 10:25:47;;;;;;;0.77;0.40;;;24.10;99.90;;;;;;6167870;23;20031;-92
2022/08/19 10:28:14;;;;;;;0.38;0.30;;;24.00;99.90;;;;;;6168866;23;20352;-91
2022/08/19 10:30:45;;;;;;;1.20;0.60;;;23.90;99.90;;;;;;6173059;23;20094;-91
2022/08/19 10:33:12;;;;;;;0.98;0.50;;;23.70;99.90;;;;;;6171212;23;20102;-91
2022/08/19 10:35:39;;;;;;;0.40;0.40;;;23.70;99.90;;;;;;6171639;23;20071;-92
2022/08/19 10:38:23;;;;;;;0.30;0.30;;;23.70;99.90;;;;;;6181724;23;20020;-91
2022/08/19 10:41:06;;;;;;;0.50;0.40;;;23.70;99.90;;;;;;6175348;23;20024;-91
2022/08/19 10:43:38;;;;;;;0.85;0.40;;;23.60;99.90;;;;;;6172825;23;20027;-90
2022/08/19 10:46:06;;;;;;;1.02;0.43;;;23.40;99.90;;;;;;6172095;23;20016;-92
2022/08/19 10:48:40;;;;;;;1.35;0.52;;;23.20;99.90;;;;;;6174128;23;20027;-91
2022/08/19 10:53:53;;;;;;;0.47;0.40;;;23.20;99.90;;;;;;6202239;23;20027;-91
2022/08/19 10:56:55;;;;;;;0.52;0.30;;;23.30;99.90;;;;;;6170287;23;20027;-91
2022/08/19 10:59:14;;;;;;;1.65;0.60;;;23.30;99.90;;;;;;6200001;23;20020;-92
2022/08/19 11:01:42;;;;;;;0.30;0.30;;;23.10;99.90;;;;;;6168411;23;20081;-90
2022/08/19 11:04:11;;;;;;;0.93;0.40;;;23.10;99.90;;;;;;6169620;23;20024;-91
2022/08/19 11:06:38;;;;;;;0.73;0.32;;;23.10;99.90;;;;;;6169004;23;20031;-91
2022/08/19 11:09:05;;;;;;;0.60;0.40;;;23.00;99.90;;;;;;6169998;23;20016;-91
2022/08/19 11:11:33;;;;;;;2.00;0.70;;;22.80;99.90;;;;;;6171198;23;20012;-91
2022/08/19 11:14:05;;;;;;;0.68;0.50;;;22.70;99.90;;;;;;6180774;23;20055;-91
2022/08/19 11:16:32;;;;;;;1.15;0.60;;;22.80;99.90;;;;;;6179508;23;20020;-92
2022/08/19 11:19:00;;;;;;;1.23;0.50;;;22.90;99.90;;;;;;6179525;23;20024;-91
2022/08/19 11:21:32;;;;;;;0.65;0.40;;;23.10;99.90;;;;;;6172485;23;20012;-92
2022/08/19 11:24:01;;;;;;;0.63;0.35;;;23.10;99.90;;;;;;6173353;23;20074;-91
2022/08/19 11:26:29;;;;;;;0.50;0.50;;;23.30;99.90;;;;;;6171539;23;20016;-91
2022/08/19 11:28:57;;;;;;;0.52;0.30;;;23.50;99.90;;;;;;6170046;23;20057;-89
2022/08/19 11:31:26;;;;;;;0.35;0.30;;;23.70;99.90;;;;;;6169449;23;20418;-92
2022/08/19 11:33:59;;;;;;;0.93;0.47;;;24.00;99.90;;;;;;6168957;23;20169;-91
2022/08/19 11:36:26;;;;;;;1.25;0.55;;;24.30;99.90;;;;;;6167169;23;20023;-91
2022/08/19 11:38:54;;;;;;;1.00;0.50;;;24.30;99.90;;;;;;6167122;23;20119;-92
2022/08/19 11:41:23;;;;;;;0.57;0.40;;;24.10;99.90;;;;;;6166636;23;20054;-92
2022/08/19 11:43:52;;;;;;;1.00;0.40;;;24.00;99.90;;;;;;6166181;23;20016;-91
2022/08/19 11:46:19;;;;;;;1.58;0.65;;;23.90;99.90;;;;;;6166922;23;20020;-91
2022/08/19 11:48:47;;;;;;;1.17;0.50;;;23.80;99.90;;;;;;6166467;23;20095;-91
2022/08/19 11:51:18;;;;;;;1.75;0.40;;;24.00;99.90;;;;;;6168327;23;20020;-92
2022/08/19 11:53:46;;;;;;;1.00;0.57;;;24.00;99.90;;;;;;6168591;23;20016;-91
2022/08/19 11:56:13;;;;;;;0.93;0.50;;;23.90;99.90;;;;;;6168123;23;20017;-91
2022/08/19 11:58:43;;;;;;;1.60;0.80;;;23.70;99.90;;;;;;6171221;23;20012;-91
2022/08/19 12:01:15;;;;;;;1.40;0.65;;;23.60;99.90;;;;;;6179648;23;20024;-92
2022/08/19 12:03:44;;;;;;;;;;;23.50;99.90;;;;;;6175235;23;20020;-91
2022/08/19 12:06:14;;;;;;;0.70;0.35;;;23.50;99.90;;;;;;6193349;23;20282;-92
2022/08/19 12:08:42;;;;;;;0.88;0.50;;;23.60;99.90;;;;;;6168704;23;20636;-92
2022/08/19 12:11:09;;;;;;;1.75;0.88;;;23.60;99.90;;;;;;6167901;23;20039;-91
2022/08/19 12:13:38;;;;;;;0.85;0.43;;;23.80;99.90;;;;;;6169076;23;20047;-91
2022/08/19 12:16:12;;;;;;;1.05;0.60;;;23.90;99.90;;;;;;6167745;23;20096;-92
2022/08/19 12:18:43;;;;;;;1.08;0.60;;;24.00;99.90;;;;;;6167678;23;20039;-91
2022/08/19 12:21:10;;;;;;;1.38;0.60;;;24.10;99.90;;;;;;6168821;23;20026;-93
2022/08/19 12:23:37;;;;;;;0.70;0.60;;;24.10;99.90;;;;;;6168522;23;20082;-94
2022/08/19 12:26:04;;;;;;;0.82;0.43;;;24.20;99.50;;;;;;6169542;23;20031;-92
2022/08/19 12:28:31;;;;;;;0.95;0.63;;;24.30;98.90;;;;;;6170309;23;20043;-93
2022/08/19 12:30:59;;;;;;;2.78;1.00;;;24.30;98.90;;;;;;6170172;23;20016;-92
2022/08/19 12:33:27;;;;;;;1.23;0.60;;;24.30;99.00;;;;;;6169770;23;20016;-91
2022/08/19 12:35:55;;;;;;;1.48;0.85;;;24.40;99.00;;;;;;6169968;23;20035;-92
2022/08/19 12:38:28;;;;;;;0.80;0.43;;;24.40;98.10;;;;;;6170127;23;20019;-93
2022/08/19 12:40:55;;;;;;;1.27;0.57;;;24.40;98.00;;;;;;6170951;23;20037;-93
2022/08/19 12:43:26;;;;;;;3.08;0.95;;;24.50;97.60;;;;;;6172429;23;20024;-91
2022/08/19 12:45:53;;;;;;;0.30;0.30;;;24.40;96.40;;;;;;6169349;23;20093;-92
2022/08/19 12:48:22;;;;;;;0.63;0.35;;;24.20;96.30;;;;;;6170230;23;20039;-91
2022/08/19 12:51:01;;;;;;;0.82;0.40;;;24.10;96.70;;;;;;6175160;23;20047;-94
2022/08/19 12:53:31;;;;;;;1.30;0.90;;;24.10;96.40;;;;;;6170204;23;20090;-93
2022/08/19 12:56:00;;;;;;;0.82;0.40;;;24.00;95.80;;;;;;6169894;23;20028;-91
2022/08/19 12:58:28;;;;;;;1.30;0.60;;;24.30;96.00;;;;;;6168939;23;20019;-92
2022/08/19 13:00:57;;;;;;;1.33;0.70;;;24.60;95.30;;;;;;6169501;23;20046;-91
2022/08/19 13:03:28;;;;;;;0.57;0.52;;;24.90;94.00;;;;;;6172563;23;20536;-92
2022/08/19 13:05:56;;;;;;;1.40;0.80;;;25.50;93.30;;;;;;6174516;23;20043;-92
2022/08/19 13:08:23;;;;;;;1.15;0.50;;;26.00;92.10;;;;;;6172402;23;20019;-91
2022/08/19 13:10:50;;;;;;;1.05;0.55;;;26.40;90.80;;;;;;6168381;23;20095;-91
2022/08/19 13:13:17;;;;;;;1.58;0.63;;;26.80;90.40;;;;;;6167643;23;20066;-92
2022/08/19 13:15:45;;;;;;;0.68;0.63;;;26.70;90.00;;;;;;6167078;23;20070;-90
2022/08/19 13:18:13;;;;;;;1.50;0.80;;;27.10;90.00;;;;;;6169154;23;20020;-90
2022/08/19 13:20:40;;;;;;;1.80;0.52;;;27.50;88.80;;;;;;6167884;23;20012;-91
2022/08/19 13:23:08;;;;;;;1.80;0.70;;;27.80;86.40;;;;;;6168478;23;20452;-92
2022/08/19 13:25:35;;;;;;;1.60;0.75;;;28.60;84.70;;;;;;6168215;23;20023;-92
2022/08/19 13:28:03;;;;;;;1.55;0.70;;;28.50;82.60;;;;;;6169078;23;20016;-92
2022/08/19 13:33:16;;;;;;;2.85;0.75;;;28.70;81.90;;;;;;6201082;23;20375;-93